createdAt,value
2022-11-06T00:00:35.203Z,94.01
2022-11-06T00:02:37.840Z,94.15
2022-11-06T00:04:43.117Z,93.97
2022-11-06T00:06:49.692Z,93.67
2022-11-06T00:08:52.678Z,94.03
2022-11-06T00:10:55.527Z,93.63
2022-11-06T00:12:58.301Z,93.66
2022-11-06T00:15:00.891Z,93.94
2022-11-06T00:17:03.487Z,93.58
2022-11-06T00:19:08.105Z,93.84
2022-11-06T00:21:13.859Z,93.69
2022-11-06T00:23:16.392Z,93.78
2022-11-06T00:25:19.147Z,93.64
2022-11-06T00:27:21.731Z,93.22
2022-11-06T00:29:24.318Z,93.05
2022-11-06T00:31:30.935Z,93.67
2022-11-06T00:33:34.002Z,92.88
2022-11-06T00:35:39.569Z,92.82
2022-11-06T00:37:42.244Z,92.48
2022-11-06T00:39:44.812Z,92.62
2022-11-06T00:41:47.359Z,92.46
2022-11-06T00:43:54.245Z,92.10
2022-11-06T00:46:13.306Z,91.85
2022-11-06T00:48:16.080Z,91.82
2022-11-06T00:50:18.861Z,90.94
2022-11-06T00:52:21.429Z,91.04
2022-11-06T00:54:24.931Z,91.55
2022-11-06T00:56:28.706Z,90.99
2022-11-06T00:58:31.305Z,91.05
2022-11-06T01:00:33.998Z,90.85
2022-11-06T01:02:36.707Z,90.59
2022-11-06T01:04:39.435Z,90.48
2022-11-06T01:06:44.825Z,90.21
2022-11-06T01:08:48.329Z,90.64
2022-11-06T01:10:50.986Z,91.06
2022-11-06T01:12:53.869Z,90.77
2022-11-06T01:14:56.413Z,90.85
2022-11-06T01:16:59.192Z,90.81
2022-11-06T01:19:02.554Z,90.98
2022-11-06T01:21:10.386Z,91.00
2022-11-06T01:23:13.022Z,90.62
2022-11-06T01:25:15.729Z,90.56
2022-11-06T01:27:27.028Z,89.82
2022-11-06T01:29:30.376Z,90.13
2022-11-06T01:31:34.299Z,90.15
2022-11-06T01:33:36.957Z,90.22
2022-11-06T01:35:45.940Z,90.02
2022-11-06T01:37:48.543Z,89.49
2022-11-06T01:39:51.241Z,89.86
2022-11-06T01:41:54.201Z,89.41
2022-11-06T01:44:01.286Z,90.45
2022-11-06T01:46:04.048Z,90.17
2022-11-06T01:48:07.099Z,90.02
2022-11-06T01:50:11.954Z,90.94
2022-11-06T01:52:16.539Z,90.54
2022-11-06T01:54:22.165Z,90.78
2022-11-06T01:56:25.201Z,90.18
2022-11-06T01:58:32.706Z,89.75
2022-11-06T02:00:35.703Z,89.36
2022-11-06T02:02:39.474Z,89.12
2022-11-06T02:04:45.859Z,90.22
2022-11-06T02:06:49.100Z,89.79
2022-11-06T02:08:51.941Z,90.26
2022-11-06T02:10:55.010Z,90.68
2022-11-06T02:13:06.411Z,90.66
2022-11-06T02:15:39.539Z,90.61
2022-11-06T02:17:56.086Z,90.55
2022-11-06T02:20:10.690Z,90.88
2022-11-06T02:22:29.959Z,90.98
2022-11-06T02:25:00.116Z,90.88
2022-11-06T02:27:24.192Z,90.07
2022-11-06T02:29:37.497Z,90.37
2022-11-06T02:31:43.778Z,90.61
2022-11-06T02:33:58.092Z,90.55
2022-11-06T02:36:04.855Z,90.11
2022-11-06T02:38:16.198Z,89.71
2022-11-06T02:40:21.861Z,90.07
2022-11-06T02:42:28.448Z,89.85
2022-11-06T02:44:34.421Z,89.98
2022-11-06T02:46:42.086Z,90.29
2022-11-06T02:48:50.358Z,90.14
2022-11-06T02:50:56.821Z,90.89
2022-11-06T02:53:08.218Z,90.63
2022-11-06T02:55:31.077Z,91.73
2022-11-06T02:57:36.531Z,91.89
2022-11-06T03:00:04.472Z,92.21
2022-11-06T03:02:14.921Z,91.78
2022-11-06T03:04:55.010Z,92.21
2022-11-06T03:07:29.118Z,92.20
2022-11-06T03:09:33.090Z,91.91
2022-11-06T03:11:39.220Z,92.19
2022-11-06T03:14:01.896Z,92.48
2022-11-06T03:16:27.733Z,91.68
2022-11-06T03:19:02.924Z,91.06
2022-11-06T03:21:12.482Z,91.15
2022-11-06T03:23:28.653Z,90.70
2022-11-06T03:25:53.383Z,90.35
2022-11-06T03:28:27.155Z,90.01
2022-11-06T03:30:31.389Z,89.48
2022-11-06T03:32:54.653Z,89.16
2022-11-06T03:35:07.479Z,88.38
2022-11-06T03:37:26.287Z,88.03
2022-11-06T03:39:43.007Z,88.20
2022-11-06T03:41:54.411Z,87.97
2022-11-06T03:44:01.568Z,88.39
2022-11-06T03:46:07.904Z,90.15
2022-11-06T03:49:02.424Z,92.18
2022-11-06T03:51:18.279Z,92.75
2022-11-06T03:53:29.490Z,93.08
2022-11-06T03:55:39.359Z,93.11
2022-11-06T03:57:48.336Z,93.63
2022-11-06T03:59:57.599Z,93.69
2022-11-06T04:02:02.814Z,91.84
2022-11-06T04:04:40.705Z,90.81
2022-11-06T04:06:52.263Z,90.52
2022-11-06T04:09:17.015Z,90.73
2022-11-06T04:11:43.393Z,91.03
2022-11-06T04:14:02.140Z,91.09
2022-11-06T04:16:05.371Z,91.23
2022-11-06T04:18:17.537Z,91.36
2022-11-06T04:20:42.491Z,91.22
2022-11-06T04:22:48.713Z,91.57
2022-11-06T04:25:29.605Z,91.27
2022-11-06T04:27:35.157Z,90.27
2022-11-06T04:29:40.549Z,90.87
2022-11-06T04:32:06.019Z,91.02
2022-11-06T04:34:12.257Z,91.34
2022-11-06T04:36:21.535Z,91.34
2022-11-06T04:38:36.052Z,91.77
2022-11-06T04:40:55.485Z,91.25
2022-11-06T04:43:12.617Z,91.43
2022-11-06T04:45:23.810Z,91.07
2022-11-06T04:47:26.753Z,91.25
2022-11-06T04:49:32.799Z,91.31
2022-11-06T04:51:38.845Z,91.78
2022-11-06T04:53:42.733Z,91.34
2022-11-06T04:55:48.195Z,90.06
2022-11-06T04:57:51.276Z,90.44
2022-11-06T04:59:54.316Z,90.76
2022-11-06T05:01:56.996Z,90.26
2022-11-06T05:04:00.089Z,90.46
2022-11-06T05:06:03.498Z,90.21
2022-11-06T05:08:06.261Z,90.40
2022-11-06T05:10:10.094Z,89.61
2022-11-06T05:12:13.024Z,90.16
2022-11-06T05:14:15.671Z,89.97
2022-11-06T05:16:18.385Z,90.15
2022-11-06T05:18:21.038Z,89.73
2022-11-06T05:20:23.645Z,90.08
2022-11-06T05:22:44.954Z,90.42
2022-11-06T05:24:47.738Z,90.45
2022-11-06T05:26:54.580Z,90.39
2022-11-06T05:29:00.633Z,90.36
2022-11-06T05:31:04.197Z,89.61
2022-11-06T05:33:06.961Z,89.23
2022-11-06T05:35:09.815Z,89.57
2022-11-06T05:37:12.424Z,89.82
2022-11-06T05:39:15.328Z,90.01
2022-11-06T05:41:18.095Z,89.46
2022-11-06T05:43:20.907Z,89.26
2022-11-06T05:45:23.665Z,89.00
2022-11-06T05:47:26.266Z,88.88
2022-11-06T05:49:28.859Z,89.07
2022-11-06T05:51:31.491Z,88.24
2022-11-06T05:53:36.228Z,88.88
2022-11-06T05:55:38.853Z,88.47
2022-11-06T05:57:41.435Z,88.02
2022-11-06T05:59:44.420Z,88.14
2022-11-06T06:01:47.353Z,88.37
2022-11-06T06:03:50.133Z,87.92
2022-11-06T06:05:52.957Z,87.13
2022-11-06T06:07:55.572Z,87.52
2022-11-06T06:09:58.260Z,86.59
2022-11-06T06:12:01.631Z,86.96
2022-11-06T06:14:04.364Z,87.03
2022-11-06T06:16:07.454Z,87.39
2022-11-06T06:18:11.312Z,86.49
2022-11-06T06:20:14.198Z,86.29
2022-11-06T06:22:16.938Z,86.45
2022-11-06T06:24:19.592Z,86.57
2022-11-06T06:26:22.267Z,86.40
2022-11-06T06:28:24.895Z,86.13
2022-11-06T06:30:27.690Z,86.39
2022-11-06T06:32:30.334Z,86.89
2022-11-06T06:34:32.965Z,86.46
2022-11-06T06:36:35.808Z,86.20
2022-11-06T06:38:38.478Z,85.45
2022-11-06T06:40:41.288Z,85.98
2022-11-06T06:42:43.880Z,85.23
2022-11-06T06:44:46.537Z,85.88
2022-11-06T06:46:49.243Z,85.67
2022-11-06T06:48:51.885Z,84.96
2022-11-06T06:51:01.219Z,84.91
2022-11-06T06:53:04.101Z,83.79
2022-11-06T06:55:07.149Z,84.46
2022-11-06T06:57:09.827Z,84.18
2022-11-06T06:59:12.499Z,83.52
2022-11-06T07:01:15.372Z,83.97
2022-11-06T07:03:18.221Z,83.90
2022-11-06T07:05:21.197Z,84.04
2022-11-06T07:07:23.795Z,83.80
2022-11-06T07:09:30.008Z,83.42
2022-11-06T07:11:32.846Z,82.92
2022-11-06T07:13:36.648Z,84.13
2022-11-06T07:15:39.330Z,84.11
2022-11-06T07:17:41.992Z,84.35
2022-11-06T07:19:44.619Z,83.50
2022-11-06T07:21:47.266Z,83.19
2022-11-06T07:23:49.854Z,83.42
2022-11-06T07:25:54.401Z,83.08
2022-11-06T07:28:02.792Z,83.00
2022-11-06T07:30:06.244Z,83.39
2022-11-06T07:32:09.521Z,83.07
2022-11-06T07:34:12.162Z,83.09
2022-11-06T07:36:14.957Z,83.24
2022-11-06T07:38:17.553Z,82.72
2022-11-06T07:40:20.236Z,83.32
2022-11-06T07:42:22.904Z,82.79
2022-11-06T07:44:25.563Z,82.68
2022-11-06T07:46:28.154Z,82.56
2022-11-06T07:48:31.935Z,82.73
2022-11-06T07:50:34.717Z,82.86
2022-11-06T07:52:37.368Z,83.38
2022-11-06T07:54:40.077Z,82.62
2022-11-06T07:56:42.795Z,83.21
2022-11-06T07:58:45.425Z,83.93
2022-11-06T08:00:49.657Z,83.87
2022-11-06T08:02:53.461Z,83.58
2022-11-06T08:04:56.215Z,83.62
2022-11-06T08:06:58.950Z,83.39
2022-11-06T08:09:05.047Z,83.36
2022-11-06T08:11:10.537Z,83.48
2022-11-06T08:13:15.366Z,83.50
2022-11-06T08:15:17.962Z,83.75
2022-11-06T08:17:21.008Z,83.49
2022-11-06T08:19:23.602Z,83.86
2022-11-06T08:21:26.377Z,83.83
2022-11-06T08:23:29.455Z,83.45
2022-11-06T08:25:33.966Z,83.59
2022-11-06T08:27:38.859Z,83.91
2022-11-06T08:29:42.678Z,83.77
2022-11-06T08:31:45.377Z,84.14
2022-11-06T08:33:48.301Z,84.04
2022-11-06T08:35:51.101Z,83.82
2022-11-06T08:37:53.672Z,83.62
2022-11-06T08:39:56.305Z,84.19
2022-11-06T08:41:58.927Z,84.16
2022-11-06T08:44:01.768Z,83.50
2022-11-06T08:46:08.809Z,83.20
2022-11-06T08:48:13.614Z,83.51
2022-11-06T08:50:17.414Z,83.81
2022-11-06T08:52:20.120Z,83.34
2022-11-06T08:54:22.813Z,83.53
2022-11-06T08:56:25.444Z,83.49
2022-11-06T08:58:28.075Z,83.22
2022-11-06T09:00:31.111Z,83.85
2022-11-06T09:02:34.761Z,83.52
2022-11-06T09:04:41.353Z,84.16
2022-11-06T09:06:44.353Z,84.04
2022-11-06T09:08:47.034Z,83.53
2022-11-06T09:10:52.213Z,83.47
2022-11-06T09:12:59.688Z,83.32
2022-11-06T09:15:02.308Z,83.43
2022-11-06T09:17:06.256Z,82.86
2022-11-06T09:19:08.998Z,83.21
2022-11-06T09:21:11.716Z,82.54
2022-11-06T09:23:14.754Z,82.16
2022-11-06T09:25:18.072Z,82.34
2022-11-06T09:27:20.669Z,82.49
2022-11-06T09:29:23.233Z,82.08
2022-11-06T09:31:26.445Z,82.20
2022-11-06T09:33:29.549Z,81.83
2022-11-06T09:35:34.886Z,81.56
2022-11-06T09:37:37.506Z,82.47
2022-11-06T09:39:40.191Z,82.59
2022-11-06T09:41:48.603Z,82.74
2022-11-06T09:44:05.547Z,82.92
2022-11-06T09:46:30.255Z,83.14
2022-11-06T09:48:44.086Z,83.30
2022-11-06T09:51:06.846Z,83.47
2022-11-06T09:53:19.895Z,83.31
2022-11-06T09:55:29.536Z,83.10
2022-11-06T09:57:38.396Z,83.47
2022-11-06T09:59:41.715Z,83.49
2022-11-06T10:01:48.610Z,83.66
2022-11-06T10:03:59.763Z,83.88
2022-11-06T10:06:02.484Z,84.24
2022-11-06T10:08:18.713Z,83.26
2022-11-06T10:10:28.657Z,83.36
2022-11-06T10:12:49.431Z,83.61
2022-11-06T10:15:13.466Z,84.06
2022-11-06T10:17:34.543Z,83.82
2022-11-06T10:19:59.673Z,84.20
2022-11-06T10:22:08.432Z,84.71
2022-11-06T10:24:43.917Z,84.96
2022-11-06T10:26:53.161Z,84.03
2022-11-06T10:29:27.807Z,84.92
2022-11-06T10:31:35.549Z,84.41
2022-11-06T10:34:28.295Z,84.72
2022-11-06T10:36:45.006Z,84.72
2022-11-06T10:38:52.838Z,84.92
2022-11-06T10:40:56.305Z,84.67
2022-11-06T10:43:09.194Z,84.62
2022-11-06T10:45:18.168Z,84.73
2022-11-06T10:47:30.169Z,84.87
2022-11-06T10:49:39.705Z,84.35
2022-11-06T10:51:51.980Z,84.85
2022-11-06T10:54:13.733Z,84.78
2022-11-06T10:56:48.706Z,85.03
2022-11-06T10:58:52.630Z,84.95
2022-11-06T11:01:00.241Z,85.55
2022-11-06T11:03:06.856Z,85.62
2022-11-06T11:05:16.566Z,85.56
2022-11-06T11:07:21.778Z,85.28
2022-11-06T11:09:34.357Z,84.90
2022-11-06T11:11:37.041Z,84.92
2022-11-06T11:13:44.398Z,84.90
2022-11-06T11:15:49.958Z,85.24
2022-11-06T11:18:14.085Z,85.32
2022-11-06T11:20:34.156Z,84.96
2022-11-06T11:22:36.830Z,85.45
2022-11-06T11:24:59.905Z,85.21
2022-11-06T11:27:05.313Z,85.41
2022-11-06T11:29:23.043Z,85.51
2022-11-06T11:31:35.176Z,85.18
2022-11-06T11:33:40.855Z,85.25
2022-11-06T11:35:49.907Z,85.21
2022-11-06T11:37:52.876Z,85.32
2022-11-06T11:39:55.633Z,85.39
2022-11-06T11:42:30.261Z,84.64
2022-11-06T11:44:32.899Z,85.07
2022-11-06T11:46:35.670Z,85.15
2022-11-06T11:48:48.014Z,85.18
2022-11-06T11:50:50.631Z,85.50
2022-11-06T11:52:58.315Z,85.94
2022-11-06T11:55:00.977Z,85.72
2022-11-06T11:57:18.570Z,85.75
2022-11-06T11:59:32.666Z,86.00
2022-11-06T12:01:40.250Z,85.75
2022-11-06T12:03:50.117Z,85.23
2022-11-06T12:05:54.744Z,85.96
2022-11-06T12:07:59.091Z,85.50
2022-11-06T12:10:04.110Z,86.28
2022-11-06T12:12:07.339Z,86.66
2022-11-06T12:14:25.168Z,87.42
2022-11-06T12:16:28.944Z,87.23
2022-11-06T12:18:47.295Z,86.78
2022-11-06T12:21:08.472Z,86.91
2022-11-06T12:23:46.447Z,86.55
2022-11-06T12:26:00.140Z,86.47
2022-11-06T12:28:05.151Z,86.74
2022-11-06T12:30:17.100Z,86.90
2022-11-06T12:32:28.552Z,86.98
2022-11-06T12:34:44.105Z,86.83
2022-11-06T12:37:08.533Z,87.24
2022-11-06T12:39:16.895Z,86.80
2022-11-06T12:41:27.164Z,86.73
2022-11-06T12:43:46.568Z,86.69
2022-11-06T12:46:01.130Z,86.72
2022-11-06T12:48:19.034Z,86.76
2022-11-06T12:50:52.293Z,86.36
2022-11-06T12:53:10.972Z,87.03
2022-11-06T12:55:28.867Z,86.97
2022-11-06T12:57:37.612Z,87.00
2022-11-06T12:59:58.779Z,87.06
2022-11-06T13:02:04.470Z,87.35
2022-11-06T13:04:28.644Z,87.65
2022-11-06T13:07:05.707Z,87.58
2022-11-06T13:09:26.848Z,87.07
2022-11-06T13:11:57.185Z,87.51
2022-11-06T13:14:05.646Z,88.37
2022-11-06T13:16:10.934Z,88.00
2022-11-06T13:18:29.789Z,87.91
2022-11-06T13:21:03.411Z,87.42
2022-11-06T13:23:06.093Z,87.59
2022-11-06T13:25:16.166Z,88.16
2022-11-06T13:27:23.627Z,87.99
2022-11-06T13:29:27.092Z,86.91
2022-11-06T13:31:39.274Z,87.47
2022-11-06T13:33:56.737Z,88.10
2022-11-06T13:35:59.649Z,88.10
2022-11-06T13:38:05.764Z,87.75
2022-11-06T13:40:20.048Z,87.34
2022-11-06T13:42:40.119Z,87.31
2022-11-06T13:44:42.827Z,87.90
2022-11-06T13:47:15.087Z,87.93
2022-11-06T13:49:46.813Z,88.21
2022-11-06T13:52:09.953Z,87.99
2022-11-06T13:54:26.777Z,88.22
2022-11-06T13:56:57.360Z,87.84
2022-11-06T13:59:33.688Z,88.48
2022-11-06T14:02:01.256Z,88.56
2022-11-06T14:04:12.883Z,87.98
2022-11-06T14:06:23.234Z,88.41
2022-11-06T14:08:29.043Z,88.23
2022-11-06T14:10:38.218Z,88.05
2022-11-06T14:12:48.115Z,88.22
2022-11-06T14:15:13.922Z,87.63
2022-11-06T14:17:16.490Z,86.77
2022-11-06T14:19:22.129Z,87.14
2022-11-06T14:21:29.379Z,87.25
2022-11-06T14:23:32.039Z,87.25
2022-11-06T14:25:40.636Z,87.75
2022-11-06T14:27:49.199Z,87.50
2022-11-06T14:30:05.519Z,88.01
2022-11-06T14:32:21.621Z,87.73
2022-11-06T14:34:33.406Z,88.39
2022-11-06T14:36:37.397Z,87.85
2022-11-06T14:38:41.007Z,88.04
2022-11-06T14:40:44.563Z,87.39
2022-11-06T14:42:48.274Z,88.08
2022-11-06T14:44:57.997Z,87.35
2022-11-06T14:47:05.781Z,87.10
2022-11-06T14:49:25.407Z,87.34
2022-11-06T14:51:30.375Z,87.57
2022-11-06T14:53:40.625Z,87.68
2022-11-06T14:55:45.429Z,87.68
2022-11-06T14:57:53.123Z,88.18
2022-11-06T14:59:57.838Z,88.10
2022-11-06T15:02:24.047Z,88.26
2022-11-06T15:04:30.282Z,88.69
2022-11-06T15:06:32.898Z,89.02
2022-11-06T15:08:48.508Z,89.59
2022-11-06T15:10:53.612Z,89.15
2022-11-06T15:13:17.444Z,89.04
2022-11-06T15:15:21.151Z,88.76
2022-11-06T15:17:26.166Z,89.33
2022-11-06T15:19:38.045Z,89.64
2022-11-06T15:21:48.215Z,89.71
2022-11-06T15:24:12.329Z,89.40
2022-11-06T15:26:33.640Z,89.65
2022-11-06T15:28:44.939Z,90.02
2022-11-06T15:30:58.241Z,90.18
2022-11-06T15:33:05.621Z,90.12
2022-11-06T15:35:17.789Z,90.27
2022-11-06T15:37:24.062Z,90.76
2022-11-06T15:39:33.458Z,90.86
2022-11-06T15:41:38.299Z,90.35
2022-11-06T15:43:45.509Z,91.01
2022-11-06T15:46:22.725Z,90.64
2022-11-06T15:48:25.398Z,90.45
2022-11-06T15:50:33.381Z,90.91
2022-11-06T15:52:36.124Z,91.44
2022-11-06T15:54:41.111Z,90.72
2022-11-06T15:56:44.071Z,91.18
2022-11-06T15:59:04.144Z,91.66
2022-11-06T16:01:08.176Z,91.24
2022-11-06T16:03:19.437Z,91.65
2022-11-06T16:05:22.353Z,92.39
2022-11-06T16:07:25.241Z,92.14
2022-11-06T16:09:28.527Z,91.92
2022-11-06T16:11:32.271Z,92.17
2022-11-06T16:13:36.984Z,92.36
2022-11-06T16:15:45.052Z,92.27
2022-11-06T16:17:47.701Z,91.81
2022-11-06T16:19:51.760Z,92.04
2022-11-06T16:22:00.756Z,92.19
2022-11-06T16:24:16.412Z,92.51
2022-11-06T16:26:36.533Z,92.20
2022-11-06T16:28:44.250Z,92.05
2022-11-06T16:30:48.970Z,92.46
2022-11-06T16:32:51.660Z,92.28
2022-11-06T16:34:55.436Z,91.90
2022-11-06T16:36:59.541Z,91.71
2022-11-06T16:39:35.379Z,91.80
2022-11-06T16:42:09.108Z,91.91
2022-11-06T16:44:33.170Z,91.22
2022-11-06T16:47:13.049Z,91.93
2022-11-06T16:49:35.998Z,91.70
2022-11-06T16:51:38.766Z,91.17
2022-11-06T16:54:00.696Z,91.32
2022-11-06T16:56:07.737Z,91.47
2022-11-06T16:58:17.198Z,91.36
2022-11-06T17:00:19.839Z,91.48
2022-11-06T17:02:29.378Z,91.39
2022-11-06T17:04:32.270Z,91.49
2022-11-06T17:06:37.181Z,92.28
2022-11-06T17:08:41.753Z,91.22
2022-11-06T17:10:46.295Z,91.38
2022-11-06T17:12:48.972Z,91.34
2022-11-06T17:14:51.669Z,91.54
2022-11-06T17:16:57.978Z,91.57
2022-11-06T17:19:00.905Z,91.11
2022-11-06T17:21:12.239Z,91.54
2022-11-06T17:23:16.466Z,91.94
2022-11-06T17:25:19.383Z,91.42
2022-11-06T17:27:22.253Z,91.82
2022-11-06T17:29:25.257Z,91.38
2022-11-06T17:31:28.221Z,91.06
2022-11-06T17:33:31.064Z,90.77
2022-11-06T17:35:34.083Z,90.27
2022-11-06T17:37:37.314Z,90.59
2022-11-06T17:39:40.115Z,90.62
2022-11-06T17:41:42.809Z,90.47
2022-11-06T17:43:45.444Z,90.51
2022-11-06T17:45:50.186Z,89.73
2022-11-06T17:47:52.902Z,90.02
2022-11-06T17:49:55.539Z,89.81
2022-11-06T17:52:01.248Z,90.43
2022-11-06T17:54:04.375Z,90.45
2022-11-06T17:56:07.381Z,90.22
2022-11-06T17:58:10.708Z,90.12
2022-11-06T18:00:14.004Z,90.11
2022-11-06T18:02:35.023Z,90.56
2022-11-06T18:04:40.142Z,90.71
2022-11-06T18:06:47.780Z,90.93
2022-11-06T18:08:59.230Z,90.61
2022-11-06T18:11:05.521Z,91.01
2022-11-06T18:13:08.742Z,90.97
2022-11-06T18:15:12.024Z,91.21
2022-11-06T18:17:15.477Z,91.05
2022-11-06T18:19:23.198Z,91.39
2022-11-06T18:21:26.144Z,91.37
2022-11-06T18:23:28.721Z,91.38
2022-11-06T18:25:31.404Z,90.91
2022-11-06T18:27:34.051Z,91.27
2022-11-06T18:29:36.718Z,91.93
2022-11-06T18:31:39.601Z,91.56
2022-11-06T18:33:42.526Z,91.28
2022-11-06T18:35:45.512Z,91.16
2022-11-06T18:37:48.060Z,91.74
2022-11-06T18:39:50.630Z,90.94
2022-11-06T18:41:53.291Z,91.15
2022-11-06T18:43:59.623Z,90.58
2022-11-06T18:46:11.119Z,90.83
2022-11-06T18:48:18.311Z,91.04
2022-11-06T18:50:23.510Z,90.97
2022-11-06T18:52:51.682Z,90.59
2022-11-06T18:54:49.127Z,90.82
2022-11-06T18:56:51.754Z,90.91
2022-11-06T18:58:55.299Z,91.64
2022-11-06T19:01:01.945Z,90.47
2022-11-06T19:03:05.107Z,91.61
2022-11-06T19:05:08.062Z,91.68
2022-11-06T19:07:10.804Z,91.87
2022-11-06T19:09:13.481Z,92.21
2022-11-06T19:11:17.915Z,92.29
2022-11-06T19:13:20.613Z,92.86
2022-11-06T19:15:23.234Z,92.79
2022-11-06T19:17:25.910Z,93.20
2022-11-06T19:19:28.547Z,92.79
2022-11-06T19:21:32.001Z,93.51
2022-11-06T19:23:34.774Z,93.57
2022-11-06T19:25:41.329Z,92.91
2022-11-06T19:27:43.964Z,93.38
2022-11-06T19:29:58.360Z,94.11
2022-11-06T19:32:48.007Z,93.94
2022-11-06T19:34:54.479Z,94.13
2022-11-06T19:37:02.371Z,93.69
2022-11-06T19:39:14.383Z,93.81
2022-11-06T19:41:17.370Z,93.58
2022-11-06T19:43:20.278Z,94.07
2022-11-06T19:45:22.974Z,93.89
2022-11-06T19:47:26.055Z,93.74
2022-11-06T19:49:28.752Z,93.57
2022-11-06T19:51:31.929Z,94.00
2022-11-06T19:53:35.044Z,94.28
2022-11-06T19:55:40.470Z,94.32
2022-11-06T19:57:43.145Z,94.14
2022-11-06T19:59:46.260Z,94.00
2022-11-06T20:01:49.866Z,94.44
2022-11-06T20:03:52.598Z,94.78
2022-11-06T20:05:55.214Z,95.00
2022-11-06T20:07:57.927Z,95.05
2022-11-06T20:10:02.990Z,94.87
2022-11-06T20:12:06.760Z,95.21
2022-11-06T20:14:09.431Z,95.08
2022-11-06T20:16:15.356Z,95.10
2022-11-06T20:18:17.937Z,95.24
2022-11-06T20:20:20.593Z,95.32
2022-11-06T20:22:25.190Z,94.71
2022-11-06T20:24:27.743Z,94.79
2022-11-06T20:26:30.440Z,94.74
2022-11-06T20:28:33.425Z,95.15
2022-11-06T20:30:36.134Z,94.96
2022-11-06T20:32:38.949Z,94.88
2022-11-06T20:34:41.531Z,95.04
2022-11-06T20:36:44.177Z,95.66
2022-11-06T20:38:47.148Z,95.46
2022-11-06T20:40:57.513Z,95.68
2022-11-06T20:43:02.637Z,95.48
2022-11-06T20:45:06.716Z,95.19
2022-11-06T20:47:09.650Z,95.12
2022-11-06T20:49:12.388Z,95.43
2022-11-06T20:51:20.157Z,95.63
2022-11-06T20:53:22.911Z,95.15
2022-11-06T20:55:25.672Z,95.94
2022-11-06T20:57:29.250Z,95.99
2022-11-06T20:59:32.468Z,95.14
2022-11-06T21:01:36.748Z,95.71
2022-11-06T21:03:41.441Z,94.94
2022-11-06T21:05:44.125Z,94.96
2022-11-06T21:07:47.025Z,94.99
2022-11-06T21:09:52.322Z,94.70
2022-11-06T21:11:55.941Z,94.42
2022-11-06T21:13:58.898Z,93.69
2022-11-06T21:16:04.710Z,93.50
2022-11-06T21:18:07.414Z,93.04
2022-11-06T21:20:11.126Z,92.77
2022-11-06T21:22:13.922Z,92.62
2022-11-06T21:24:16.580Z,92.33
2022-11-06T21:26:29.493Z,93.34
2022-11-06T21:28:33.589Z,93.50
2022-11-06T21:30:46.792Z,93.25
2022-11-06T21:32:49.504Z,93.83
2022-11-06T21:34:52.187Z,93.51
2022-11-06T21:37:02.151Z,93.40
2022-11-06T21:39:14.601Z,92.33
2022-11-06T21:41:20.898Z,92.95
2022-11-06T21:43:23.709Z,92.55
2022-11-06T21:45:26.888Z,92.67
2022-11-06T21:47:29.541Z,92.54
2022-11-06T21:49:33.975Z,92.39
2022-11-06T21:51:36.895Z,92.49
2022-11-06T21:53:58.858Z,92.16
2022-11-06T21:56:06.225Z,92.51
2022-11-06T21:58:08.898Z,92.38
2022-11-06T22:00:14.444Z,92.27
2022-11-06T22:02:19.127Z,92.49
2022-11-06T22:04:22.315Z,92.21
2022-11-06T22:06:27.380Z,92.89
2022-11-06T22:08:30.730Z,92.52
2022-11-06T22:10:34.179Z,92.83
2022-11-06T22:12:36.950Z,92.30
2022-11-06T22:14:40.106Z,91.92
2022-11-06T22:16:45.131Z,92.12
2022-11-06T22:18:48.025Z,91.64
2022-11-06T22:20:50.577Z,91.51
2022-11-06T22:22:53.272Z,90.57
2022-11-06T22:24:55.959Z,91.41
2022-11-06T22:26:58.620Z,91.34
2022-11-06T22:29:04.606Z,90.64
2022-11-06T22:31:07.617Z,90.64
2022-11-06T22:33:10.719Z,90.68
2022-11-06T22:35:13.579Z,90.92
2022-11-06T22:37:17.724Z,91.13
2022-11-06T22:39:20.425Z,91.31
2022-11-06T22:41:24.643Z,91.18
2022-11-06T22:43:28.467Z,91.34
2022-11-06T22:45:32.127Z,90.90
2022-11-06T22:47:35.144Z,90.76
2022-11-06T22:49:37.897Z,90.55
2022-11-06T22:51:40.486Z,91.07
2022-11-06T22:53:43.431Z,90.66
2022-11-06T22:55:46.079Z,90.37
2022-11-06T22:57:48.767Z,90.30
2022-11-06T22:59:51.307Z,89.96
2022-11-06T23:01:53.963Z,90.45
2022-11-06T23:04:01.113Z,90.01
2022-11-06T23:06:09.236Z,90.40
2022-11-06T23:08:11.892Z,90.53
2022-11-06T23:10:14.509Z,90.95
2022-11-06T23:12:17.118Z,90.36
2022-11-06T23:14:19.668Z,90.30
2022-11-06T23:16:44.919Z,90.25
2022-11-06T23:18:47.697Z,90.37
2022-11-06T23:20:50.388Z,90.10
2022-11-06T23:22:53.327Z,90.54
2022-11-06T23:24:56.331Z,90.38
2022-11-06T23:26:58.995Z,90.14
2022-11-06T23:29:02.243Z,90.25
2022-11-06T23:31:09.512Z,89.57
2022-11-06T23:33:12.441Z,90.31
2022-11-06T23:35:17.144Z,90.52
2022-11-06T23:37:20.614Z,90.54
2022-11-06T23:39:23.383Z,90.36
2022-11-06T23:41:46.025Z,90.16
2022-11-06T23:43:51.221Z,90.28
2022-11-06T23:45:54.030Z,90.37
2022-11-06T23:47:56.933Z,90.06
2022-11-06T23:49:59.774Z,90.42
2022-11-06T23:52:02.454Z,90.45
2022-11-06T23:54:05.056Z,90.38
2022-11-06T23:56:09.177Z,90.03
2022-11-06T23:58:11.840Z,90.52
